Time;durP1;ratioP1;P1;durP2;ratioP2;P2;SDS_P1;SDS_P2;PMS_P1;PMS_P2;Temp;Humidity;BMP_temperature;BMP_pressure;BME280_temperature;BME280_humidity;BME280_pressure;Samples;Min_cycle;Max_cycle;Signal;HPM_P1;HPM_P2
2023/01/10 00:03:12;;;;;;;8.73;7.85;;;;;;;;;;10111689;28;20080;-61
2023/01/10 00:08:07;;;;;;;8.90;7.93;;;;;;;;;;10107666;28;20054;-61
2023/01/10 00:18:13;;;;;;;9.48;7.35;;;;;;;;;;10107958;28;20041;-61
2023/01/10 00:23:07;;;;;;;9.93;7.95;;;;;;;;;;10106443;28;20440;-61
2023/01/10 00:28:09;;;;;;;11.25;7.78;;;;;;;;;;10106752;28;20080;-62
2023/01/10 00:33:03;;;;;;;10.30;8.70;;;;;;;;;;10107446;28;20057;-60
2023/01/10 00:38:04;;;;;;;11.45;8.60;;;;;;;;;;10106142;28;20581;-61
2023/01/10 00:48:13;;;;;;;8.25;6.60;;;;;;;;;;10104960;28;20053;-61
2023/01/10 00:53:07;;;;;;;6.65;5.35;;;;;;;;;;10105816;28;20061;-61
2023/01/10 00:58:00;;;;;;;4.65;4.22;;;;;;;;;;10106215;28;20060;-61
2023/01/10 01:02:54;;;;;;;5.15;4.65;;;;;;;;;;10113351;28;20524;-61
2023/01/10 01:07:50;;;;;;;5.40;3.25;;;;;;;;;;10105968;28;20493;-61
2023/01/10 01:12:44;;;;;;;3.83;3.33;;;;;;;;;;10086788;28;20102;-60
2023/01/10 01:17:38;;;;;;;4.95;3.20;;;;;;;;;;10110596;28;20477;-61
2023/01/10 01:22:32;;;;;;;3.97;3.28;;;;;;;;;;10113302;28;20049;-61
2023/01/10 01:27:26;;;;;;;4.03;3.30;;;;;;;;;;10113855;28;20413;-61
2023/01/10 01:32:20;;;;;;;2.90;2.40;;;;;;;;;;10114050;28;20095;-61
2023/01/10 01:37:15;;;;;;;5.30;2.63;;;;;;;;;;10113943;28;20049;-61
2023/01/10 01:42:20;;;;;;;3.33;2.65;;;;;;;;;;10120694;28;20102;-61
2023/01/10 01:47:21;;;;;;;2.60;2.40;;;;;;;;;;10103089;28;20053;-60
2023/01/10 01:52:26;;;;;;;3.05;2.60;;;;;;;;;;10099203;28;20041;-61
2023/01/10 01:57:23;;;;;;;2.88;2.40;;;;;;;;;;10112284;28;20099;-61
2023/01/10 02:02:25;;;;;;;2.95;2.70;;;;;;;;;;10111646;28;20402;-61
2023/01/10 02:07:18;;;;;;;2.80;2.60;;;;;;;;;;10094127;28;20497;-61
2023/01/10 02:12:12;;;;;;;3.70;2.60;;;;;;;;;;10111521;28;20126;-61
2023/01/10 02:17:09;;;;;;;3.10;2.83;;;;;;;;;;10116176;28;20554;-60
2023/01/10 02:22:59;;;;;;;3.43;2.70;;;;;;;;;;10101466;28;20048;-61
2023/01/10 02:28:00;;;;;;;3.85;3.35;;;;;;;;;;10063084;28;20057;-61
2023/01/10 02:33:28;;;;;;;3.92;3.03;;;;;;;;;;10110499;28;20517;-61
2023/01/10 02:38:45;;;;;;;2.97;2.67;;;;;;;;;;10110090;28;20060;-61
2023/01/10 02:43:43;;;;;;;3.72;2.22;;;;;;;;;;10110112;28;20161;-61
2023/01/10 02:48:57;;;;;;;3.53;3.22;;;;;;;;;;10115760;28;20159;-60
2023/01/10 02:54:24;;;;;;;3.35;3.05;;;;;;;;;;10116477;28;20056;-61
2023/01/10 02:59:41;;;;;;;2.85;2.63;;;;;;;;;;10102473;28;20041;-61
2023/01/10 03:04:53;;;;;;;3.55;2.60;;;;;;;;;;10110163;28;20060;-61
2023/01/10 03:09:57;;;;;;;2.85;2.60;;;;;;;;;;10084035;28;20049;-61
2023/01/10 03:14:52;;;;;;;3.75;3.08;;;;;;;;;;10109296;28;20501;-61
2023/01/10 03:20:08;;;;;;;5.93;4.20;;;;;;;;;;10108965;28;20083;-61
2023/01/10 03:25:05;;;;;;;5.80;4.40;;;;;;;;;;10106286;28;20077;-61
2023/01/10 03:30:11;;;;;;;5.45;3.67;;;;;;;;;;10109646;28;20068;-61
2023/01/10 03:35:05;;;;;;;4.05;3.45;;;;;;;;;;10109064;28;20045;-61
2023/01/10 03:40:28;;;;;;;2.85;2.50;;;;;;;;;;10108861;28;20464;-61
2023/01/10 03:45:29;;;;;;;3.30;3.00;;;;;;;;;;10106744;28;20045;-61
2023/01/10 03:50:24;;;;;;;4.35;3.25;;;;;;;;;;10108079;28;20132;-61
2023/01/10 03:55:20;;;;;;;5.57;3.63;;;;;;;;;;10105813;28;20053;-61
2023/01/10 04:00:15;;;;;;;4.32;3.25;;;;;;;;;;10093913;28;20107;-61
2023/01/10 04:05:09;;;;;;;4.70;3.60;;;;;;;;;;10107732;28;20052;-61
2023/01/10 04:10:05;;;;;;;3.88;3.45;;;;;;;;;;10111986;28;20048;-61
2023/01/10 04:15:00;;;;;;;5.55;3.67;;;;;;;;;;10110210;28;20698;-61
2023/01/10 04:19:54;;;;;;;4.18;3.28;;;;;;;;;;10107420;28;20041;-61
2023/01/10 04:24:50;;;;;;;3.53;3.10;;;;;;;;;;10107624;28;20045;-61
2023/01/10 04:29:44;;;;;;;3.72;3.13;;;;;;;;;;10107821;28;20425;-61
2023/01/10 04:34:38;;;;;;;4.68;4.20;;;;;;;;;;10108911;28;20056;-61
2023/01/10 04:39:32;;;;;;;4.20;3.80;;;;;;;;;;10106504;28;20076;-61
2023/01/10 04:44:25;;;;;;;5.30;4.07;;;;;;;;;;10106312;28;20528;-61
2023/01/10 04:49:19;;;;;;;9.02;4.75;;;;;;;;;;10105234;28;20084;-60
2023/01/10 04:54:13;;;;;;;6.13;5.43;;;;;;;;;;10106506;28;20061;-60
2023/01/10 04:59:08;;;;;;;5.78;4.00;;;;;;;;;;10114219;28;20044;-61
2023/01/10 05:04:02;;;;;;;4.72;4.22;;;;;;;;;;10104392;28;20057;-61
2023/01/10 05:08:55;;;;;;;7.38;4.25;;;;;;;;;;10111286;28;20128;-61
2023/01/10 05:13:49;;;;;;;8.18;4.28;;;;;;;;;;10112128;28;20548;-61
2023/01/10 05:18:42;;;;;;;3.65;3.17;;;;;;;;;;10107464;28;20045;-61
2023/01/10 05:23:37;;;;;;;4.78;3.95;;;;;;;;;;10105734;28;20548;-61
2023/01/10 05:28:31;;;;;;;5.03;4.18;;;;;;;;;;10105203;28;20140;-60
2023/01/10 05:33:25;;;;;;;8.85;6.40;;;;;;;;;;10105210;28;20056;-61
2023/01/10 05:38:19;;;;;;;10.45;6.47;;;;;;;;;;10110789;28;20053;-63
2023/01/10 05:43:12;;;;;;;4.85;3.90;;;;;;;;;;10109680;28;20049;-61
2023/01/10 05:48:07;;;;;;;4.82;4.28;;;;;;;;;;10097103;28;20045;-61
2023/01/10 05:53:04;;;;;;;11.68;5.35;;;;;;;;;;10095349;28;20045;-61
2023/01/10 05:57:58;;;;;;;5.78;3.90;;;;;;;;;;10097062;28;20045;-60
2023/01/10 06:02:56;;;;;;;3.85;3.45;;;;;;;;;;10098587;28;20072;-61
2023/01/10 06:07:50;;;;;;;5.75;3.30;;;;;;;;;;10106882;28;20528;-60
2023/01/10 06:12:45;;;;;;;5.68;3.78;;;;;;;;;;10105166;28;20060;-61
2023/01/10 06:17:40;;;;;;;12.85;5.05;;;;;;;;;;10104211;28;20556;-61
2023/01/10 06:22:33;;;;;;;8.93;4.97;;;;;;;;;;10114169;28;20045;-60
2023/01/10 06:27:27;;;;;;;17.38;8.38;;;;;;;;;;10135304;28;20501;-60
2023/01/10 06:32:21;;;;;;;14.50;9.13;;;;;;;;;;10130396;28;20041;-61
2023/01/10 06:37:15;;;;;;;9.38;6.68;;;;;;;;;;10114893;28;20053;-66
2023/01/10 06:42:12;;;;;;;10.35;5.80;;;;;;;;;;10120547;28;20413;-61
2023/01/10 06:47:06;;;;;;;9.40;6.70;;;;;;;;;;10121726;28;20110;-60
2023/01/10 06:52:00;;;;;;;10.98;7.63;;;;;;;;;;10129995;28;20063;-63
2023/01/10 06:56:53;;;;;;;12.65;9.48;;;;;;;;;;10120264;28;20071;-61
2023/01/10 07:01:47;;;;;;;15.25;10.18;;;;;;;;;;10111541;28;20658;-61
2023/01/10 07:06:41;;;;;;;8.23;6.53;;;;;;;;;;10108904;28;20057;-61
2023/01/10 07:11:34;;;;;;;9.57;6.47;;;;;;;;;;10111695;28;20048;-61
2023/01/10 07:16:28;;;;;;;9.73;7.10;;;;;;;;;;10106726;28;20155;-61
2023/01/10 07:21:22;;;;;;;10.68;7.88;;;;;;;;;;10103856;28;20053;-61
2023/01/10 07:26:18;;;;;;;13.52;5.78;;;;;;;;;;10099999;28;20514;-61
2023/01/10 07:31:12;;;;;;;6.88;5.32;;;;;;;;;;10108979;28;20124;-61
2023/01/10 07:36:06;;;;;;;12.38;5.70;;;;;;;;;;10113795;28;20048;-61
2023/01/10 07:41:03;;;;;;;9.35;5.97;;;;;;;;;;10116584;28;20371;-61
2023/01/10 07:46:10;;;;;;;12.18;5.93;;;;;;;;;;10108347;28;20079;-61
2023/01/10 07:51:05;;;;;;;9.07;6.78;;;;;;;;;;10118335;28;20513;-61
2023/01/10 07:56:00;;;;;;;10.43;6.05;;;;;;;;;;10108694;28;20049;-61
2023/01/10 08:00:58;;;;;;;10.32;5.30;;;;;;;;;;10110779;28;20079;-61
2023/01/10 08:06:18;;;;;;;15.65;5.40;;;;;;;;;;10109499;28;20099;-61
2023/01/10 08:11:12;;;;;;;7.57;4.85;;;;;;;;;;10107291;28;20398;-61
2023/01/10 08:16:08;;;;;;;9.98;5.03;;;;;;;;;;10116684;28;20402;-61
2023/01/10 08:21:01;;;;;;;28.20;5.60;;;;;;;;;;10107577;28;20085;-61
2023/01/10 08:25:56;;;;;;;10.05;6.00;;;;;;;;;;10107740;28;20048;-61
2023/01/10 08:30:54;;;;;;;6.63;4.82;;;;;;;;;;10106701;28;20045;-61
2023/01/10 08:35:47;;;;;;;12.90;7.40;;;;;;;;;;10109250;28;20048;-61
2023/01/10 08:40:41;;;;;;;11.00;6.20;;;;;;;;;;10109877;28;20051;-61
2023/01/10 08:45:36;;;;;;;6.43;5.22;;;;;;;;;;10107785;28;20087;-61
2023/01/10 08:50:29;;;;;;;12.38;5.15;;;;;;;;;;10105896;28;20553;-60
2023/01/10 08:55:23;;;;;;;7.25;4.45;;;;;;;;;;10106959;28;20078;-61
2023/01/10 09:00:19;;;;;;;3.28;2.97;;;;;;;;;;10109007;28;20103;-61
2023/01/10 09:05:12;;;;;;;4.40;2.75;;;;;;;;;;10106149;28;20049;-61
2023/01/10 09:10:20;;;;;;;4.00;2.33;;;;;;;;;;10106727;28;20045;-61
2023/01/10 09:15:14;;;;;;;3.50;2.05;;;;;;;;;;10106017;28;20056;-61
2023/01/10 09:20:10;;;;;;;2.65;2.28;;;;;;;;;;10105900;28;20508;-61
2023/01/10 09:25:05;;;;;;;4.47;1.25;;;;;;;;;;10107300;28;20049;-61
2023/01/10 09:29:59;;;;;;;2.05;1.10;;;;;;;;;;10112108;28;20053;-61
2023/01/10 09:34:53;;;;;;;1.05;1.00;;;;;;;;;;10106718;28;20064;-61
2023/01/10 09:39:47;;;;;;;1.20;1.10;;;;;;;;;;10107136;28;20044;-62
2023/01/10 09:44:45;;;;;;;2.15;1.10;;;;;;;;;;10121510;28;20059;-62
2023/01/10 09:50:16;;;;;;;1.38;1.30;;;;;;;;;;10107422;28;20094;-61
2023/01/10 09:55:29;;;;;;;;;;;;;;;;;;10112867;28;20057;-61
2023/01/10 10:00:30;;;;;;;1.95;1.85;;;;;;;;;;10112167;28;19924;-61
2023/01/10 10:05:27;;;;;;;2.65;1.30;;;;;;;;;;10110854;28;20049;-62
2023/01/10 10:10:46;;;;;;;1.20;1.10;;;;;;;;;;10110637;28;20036;-62
2023/01/10 10:15:50;;;;;;;2.80;1.30;;;;;;;;;;10107757;28;20509;-61
2023/01/10 10:20:57;;;;;;;1.00;1.00;;;;;;;;;;10121089;28;20037;-62
2023/01/10 10:25:53;;;;;;;2.20;0.93;;;;;;;;;;10119180;28;20045;-63
2023/01/10 10:30:49;;;;;;;1.77;0.90;;;;;;;;;;10120908;28;20052;-66
2023/01/10 10:35:56;;;;;;;2.70;0.90;;;;;;;;;;10111379;28;20053;-62
2023/01/10 10:40:51;;;;;;;2.40;0.90;;;;;;;;;;10135906;28;20152;-62
2023/01/10 10:45:49;;;;;;;1.00;0.93;;;;;;;;;;10126110;28;20136;-62
2023/01/10 10:51:01;;;;;;;1.40;0.80;;;;;;;;;;10109551;28;20049;-62
2023/01/10 10:55:55;;;;;;;1.80;0.68;;;;;;;;;;10110011;28;20049;-62
2023/01/10 11:00:48;;;;;;;0.70;0.70;;;;;;;;;;10110331;28;20064;-62
2023/01/10 11:05:45;;;;;;;1.08;1.05;;;;;;;;;;10110373;28;20551;-62
2023/01/10 11:10:48;;;;;;;;;;;;;;;;;;10125324;28;20127;-62
2023/01/10 11:15:46;;;;;;;1.13;0.90;;;;;;;;;;10114761;28;19920;-62
2023/01/10 11:21:07;;;;;;;2.33;0.87;;;;;;;;;;10108533;28;20044;-61
2023/01/10 11:26:02;;;;;;;1.13;0.70;;;;;;;;;;10106553;28;20045;-62
2023/01/10 11:30:57;;;;;;;0.93;0.80;;;;;;;;;;10107315;28;20052;-61
2023/01/10 11:36:11;;;;;;;0.93;0.80;;;;;;;;;;10124153;28;20052;-62
2023/01/10 11:41:16;;;;;;;0.73;0.73;;;;;;;;;;10110916;28;20508;-62
2023/01/10 11:46:16;;;;;;;0.93;0.93;;;;;;;;;;10109523;28;20076;-61
2023/01/10 11:51:23;;;;;;;1.65;1.55;;;;;;;;;;10107217;28;20060;-62
2023/01/10 11:56:25;;;;;;;0.90;0.90;;;;;;;;;;10104504;28;20095;-62
2023/01/10 12:01:28;;;;;;;0.95;0.85;;;;;;;;;;10101292;28;20048;-62
2023/01/10 12:06:22;;;;;;;1.13;1.00;;;;;;;;;;10107805;28;20525;-61
2023/01/10 12:11:28;;;;;;;1.00;1.00;;;;;;;;;;10111768;28;20060;-62
2023/01/10 12:16:27;;;;;;;0.88;0.88;;;;;;;;;;10104107;28;20509;-62
2023/01/10 12:21:43;;;;;;;1.05;1.05;;;;;;;;;;10108736;28;20040;-61
2023/01/10 12:26:36;;;;;;;1.00;1.00;;;;;;;;;;10132356;28;20059;-61
2023/01/10 12:31:30;;;;;;;1.10;1.00;;;;;;;;;;10132039;28;20071;-61
2023/01/10 12:36:29;;;;;;;1.08;0.85;;;;;;;;;;10126047;28;20052;-61
2023/01/10 12:46:59;;;;;;;0.80;0.80;;;;;;;;;;10109527;28;20179;-62
2023/01/10 12:52:06;;;;;;;0.75;0.75;;;;;;;;;;10122715;28;20102;-61
2023/01/10 12:57:04;;;;;;;1.40;1.30;;;;;;;;;;10105411;28;20087;-62
2023/01/10 13:02:00;;;;;;;1.47;1.37;;;;;;;;;;10105566;28;20469;-61
2023/01/10 13:06:54;;;;;;;1.20;1.10;;;;;;;;;;10110098;28;20060;-61
2023/01/10 13:12:03;;;;;;;3.42;1.27;;;;;;;;;;10105754;28;20482;-62
2023/01/10 13:17:08;;;;;;;1.10;1.10;;;;;;;;;;10095693;28;20065;-61
2023/01/10 13:22:20;;;;;;;2.95;1.10;;;;;;;;;;10106724;28;20056;-62
2023/01/10 13:27:19;;;;;;;8.95;6.88;;;;;;;;;;10105689;28;20057;-62
2023/01/10 13:32:33;;;;;;;1.90;1.80;;;;;;;;;;10104695;28;20143;-62
2023/01/10 13:37:51;;;;;;;3.88;3.53;;;;;;;;;;10116720;28;20102;-62
2023/01/10 13:47:59;;;;;;;3.65;1.00;;;;;;;;;;10090900;28;20553;-62
2023/01/10 13:53:01;;;;;;;2.70;1.65;;;;;;;;;;10107354;28;20083;-62
2023/01/10 13:58:01;;;;;;;1.75;1.13;;;;;;;;;;10105989;28;20059;-62
2023/01/10 14:02:55;;;;;;;1.80;1.70;;;;;;;;;;10113904;28;20084;-62
2023/01/10 14:07:53;;;;;;;3.60;1.52;;;;;;;;;;10127045;28;20135;-62
2023/01/10 14:12:52;;;;;;;1.10;1.03;;;;;;;;;;10125617;28;20390;-62
2023/01/10 14:18:12;;;;;;;0.98;0.98;;;;;;;;;;10103224;28;20147;-61
2023/01/10 14:23:14;;;;;;;1.98;1.40;;;;;;;;;;10098776;28;20055;-62
2023/01/10 14:28:21;;;;;;;1.30;1.10;;;;;;;;;;10113240;28;20451;-62
2023/01/10 14:33:21;;;;;;;1.20;1.10;;;;;;;;;;10121293;28;20440;-61
2023/01/10 14:38:44;;;;;;;1.58;1.20;;;;;;;;;;10114598;28;20563;-62
2023/01/10 14:44:20;;;;;;;8.48;3.25;;;;;;;;;;10090453;28;20072;-61
2023/01/10 14:49:19;;;;;;;4.10;1.67;;;;;;;;;;10078738;28;20676;-62
2023/01/10 14:54:13;;;;;;;13.82;8.90;;;;;;;;;;10114225;28;20061;-62
2023/01/10 14:59:23;;;;;;;6.63;3.80;;;;;;;;;;10110105;28;20075;-62
2023/01/10 15:04:21;;;;;;;12.48;7.38;;;;;;;;;;10109691;28;20527;-62
2023/01/10 15:09:15;;;;;;;1.90;1.75;;;;;;;;;;10109608;28;20057;-61
2023/01/10 15:14:09;;;;;;;1.40;1.30;;;;;;;;;;10112820;28;20118;-62
2023/01/10 15:19:03;;;;;;;3.75;1.85;;;;;;;;;;10112138;28;20079;-62
2023/01/10 15:23:57;;;;;;;2.90;1.90;;;;;;;;;;10108751;28;20417;-62
2023/01/10 15:29:15;;;;;;;1.92;1.73;;;;;;;;;;10108870;28;20421;-61
2023/01/10 15:34:18;;;;;;;3.17;1.90;;;;;;;;;;10102867;28;20452;-61
2023/01/10 15:39:26;;;;;;;2.20;1.50;;;;;;;;;;10106879;28;20049;-62
2023/01/10 15:44:43;;;;;;;3.73;2.17;;;;;;;;;;10110815;28;20045;-61
2023/01/10 15:49:37;;;;;;;2.30;1.20;;;;;;;;;;10118260;28;20533;-61
2023/01/10 15:54:31;;;;;;;2.25;1.98;;;;;;;;;;10113681;28;20118;-61
2023/01/10 15:59:29;;;;;;;6.05;2.63;;;;;;;;;;10109672;28;20049;-61
2023/01/10 16:04:22;;;;;;;5.22;1.90;;;;;;;;;;10106844;28;20051;-62
2023/01/10 16:09:20;;;;;;;2.65;2.38;;;;;;;;;;10108777;28;20049;-62
2023/01/10 16:14:13;;;;;;;4.13;2.83;;;;;;;;;;10121197;28;20410;-62
2023/01/10 16:19:07;;;;;;;3.17;2.55;;;;;;;;;;10108993;28;20053;-62
2023/01/10 16:24:01;;;;;;;4.13;2.50;;;;;;;;;;10106844;28;20061;-61
2023/01/10 16:28:55;;;;;;;3.85;2.25;;;;;;;;;;10120887;28;20079;-62
2023/01/10 16:33:50;;;;;;;3.90;2.25;;;;;;;;;;10105644;28;20056;-61
2023/01/10 16:38:44;;;;;;;10.73;7.97;;;;;;;;;;10106888;28;20053;-62
2023/01/10 16:43:38;;;;;;;16.77;11.95;;;;;;;;;;10098518;28;20506;-61
2023/01/10 16:48:33;;;;;;;11.45;8.70;;;;;;;;;;10111415;28;20076;-61
2023/01/10 16:53:26;;;;;;;10.63;5.72;;;;;;;;;;10108028;28;20081;-61
2023/01/10 16:58:20;;;;;;;4.55;4.07;;;;;;;;;;10113665;28;20052;-60
2023/01/10 17:03:20;;;;;;;6.18;5.32;;;;;;;;;;10107840;28;20049;-60
2023/01/10 17:08:33;;;;;;;5.80;4.20;;;;;;;;;;10125455;28;20045;-60
2023/01/10 17:13:29;;;;;;;21.65;18.42;;;;;;;;;;10110399;28;20505;-60
2023/01/10 17:18:31;;;;;;;7.85;6.78;;;;;;;;;;10117810;28;20466;-59
2023/01/10 17:23:29;;;;;;;11.45;9.13;;;;;;;;;;10104912;28;20056;-60
2023/01/10 17:28:24;;;;;;;8.43;7.53;;;;;;;;;;10104658;28;20456;-60
2023/01/10 17:33:23;;;;;;;4.38;3.92;;;;;;;;;;10105132;28;20049;-60
2023/01/10 17:38:26;;;;;;;4.35;3.33;;;;;;;;;;10111651;28;20099;-60
2023/01/10 17:43:20;;;;;;;3.87;2.97;;;;;;;;;;10104274;28;20454;-60
2023/01/10 17:48:19;;;;;;;2.70;2.50;;;;;;;;;;10117446;28;20056;-60
2023/01/10 17:53:16;;;;;;;1.83;1.73;;;;;;;;;;10119274;28;20106;-60
2023/01/10 17:58:13;;;;;;;4.30;1.90;;;;;;;;;;10103125;28;20486;-60
2023/01/10 18:03:07;;;;;;;2.05;1.77;;;;;;;;;;10108172;28;20489;-60
2023/01/10 18:08:07;;;;;;;2.75;1.77;;;;;;;;;;10116379;28;20072;-60
2023/01/10 18:13:01;;;;;;;2.03;1.90;;;;;;;;;;10111345;28;20493;-60
2023/01/10 18:17:59;;;;;;;1.77;1.67;;;;;;;;;;10119768;28;20063;-60
2023/01/10 18:28:05;;;;;;;2.17;1.70;;;;;;;;;;10137737;28;20041;-60
2023/01/10 18:32:59;;;;;;;2.10;1.92;;;;;;;;;;10132469;28;20055;-60
2023/01/10 18:37:54;;;;;;;1.85;1.75;;;;;;;;;;10124377;28;20057;-60
2023/01/10 18:42:53;;;;;;;2.88;2.55;;;;;;;;;;10116651;28;20075;-62
2023/01/10 18:47:54;;;;;;;9.32;4.70;;;;;;;;;;10142063;28;20071;-62
2023/01/10 18:52:50;;;;;;;4.05;2.67;;;;;;;;;;10123688;28;20048;-62
2023/01/10 18:57:47;;;;;;;2.90;2.10;;;;;;;;;;10121921;28;20593;-62
2023/01/10 19:02:45;;;;;;;14.32;9.50;;;;;;;;;;10111862;28;20051;-62
2023/01/10 19:07:46;;;;;;;12.02;7.90;;;;;;;;;;10112909;28;20056;-62
2023/01/10 19:12:41;;;;;;;9.90;7.57;;;;;;;;;;10119132;28;20041;-62
2023/01/10 19:17:34;;;;;;;13.18;10.18;;;;;;;;;;10115386;28;20128;-61
2023/01/10 19:22:28;;;;;;;15.80;9.90;;;;;;;;;;10103177;28;20066;-61
2023/01/10 19:27:22;;;;;;;11.23;9.15;;;;;;;;;;10112047;28;20053;-62
2023/01/10 19:32:16;;;;;;;11.30;7.00;;;;;;;;;;10114286;28;20119;-62
2023/01/10 19:37:10;;;;;;;9.20;3.40;;;;;;;;;;10125170;28;20050;-62
2023/01/10 19:42:05;;;;;;;7.43;4.03;;;;;;;;;;10114806;28;20052;-63
2023/01/10 19:46:58;;;;;;;6.28;4.00;;;;;;;;;;10108771;28;20535;-61
2023/01/10 19:51:54;;;;;;;7.10;4.65;;;;;;;;;;10117052;28;20045;-61
2023/01/10 19:56:50;;;;;;;5.70;4.65;;;;;;;;;;10110552;28;20489;-62
2023/01/10 20:01:44;;;;;;;3.40;3.08;;;;;;;;;;10109225;28;20048;-62
2023/01/10 20:06:39;;;;;;;3.78;3.28;;;;;;;;;;10107304;28;20057;-62
2023/01/10 20:11:37;;;;;;;4.53;3.53;;;;;;;;;;10124173;28;20461;-62
2023/01/10 20:16:30;;;;;;;15.55;11.18;;;;;;;;;;10112347;28;20057;-62
2023/01/10 20:21:24;;;;;;;13.27;9.75;;;;;;;;;;10112750;28;20052;-62
2023/01/10 20:26:24;;;;;;;17.30;12.15;;;;;;;;;;10098539;28;20220;-62
2023/01/10 20:31:20;;;;;;;16.45;10.27;;;;;;;;;;10106862;28;20462;-63
2023/01/10 20:36:35;;;;;;;13.38;11.05;;;;;;;;;;10108467;28;20452;-62
2023/01/10 20:41:29;;;;;;;16.33;10.45;;;;;;;;;;10111855;28;20152;-61
2023/01/10 20:46:25;;;;;;;7.45;6.38;;;;;;;;;;10106722;28;20056;-61
2023/01/10 20:51:21;;;;;;;12.85;7.40;;;;;;;;;;10121220;28;21441;-61
2023/01/10 20:56:18;;;;;;;10.23;6.50;;;;;;;;;;10105416;28;20071;-62
2023/01/10 21:01:13;;;;;;;7.95;6.78;;;;;;;;;;10097648;28;20057;-62
2023/01/10 21:06:20;;;;;;;7.07;5.57;;;;;;;;;;10102592;28;20049;-62
2023/01/10 21:11:15;;;;;;;10.63;8.00;;;;;;;;;;10118645;28;20088;-62
2023/01/10 21:16:12;;;;;;;10.00;6.38;;;;;;;;;;10096151;28;20048;-61
2023/01/10 21:21:09;;;;;;;6.45;5.00;;;;;;;;;;10096970;28;20048;-61
2023/01/10 21:26:05;;;;;;;5.82;3.88;;;;;;;;;;10097771;28;20059;-61
2023/01/10 21:30:59;;;;;;;4.13;3.72;;;;;;;;;;10096750;28;20056;-61
2023/01/10 21:35:56;;;;;;;6.88;5.00;;;;;;;;;;10098757;28;20500;-61
2023/01/10 21:40:50;;;;;;;5.95;4.60;;;;;;;;;;10106071;28;20123;-61
2023/01/10 21:45:44;;;;;;;7.53;4.38;;;;;;;;;;10110283;28;20049;-62
2023/01/10 21:50:39;;;;;;;6.25;5.03;;;;;;;;;;10104958;28;20144;-62
2023/01/10 21:55:34;;;;;;;6.97;4.57;;;;;;;;;;10106726;28;20510;-62
2023/01/10 22:00:28;;;;;;;5.45;4.43;;;;;;;;;;10107600;28;20076;-62
2023/01/10 22:05:22;;;;;;;6.20;4.18;;;;;;;;;;10106975;28;20452;-61
2023/01/10 22:10:17;;;;;;;9.90;4.97;;;;;;;;;;10107558;28;20095;-62
2023/01/10 22:15:11;;;;;;;6.30;4.57;;;;;;;;;;10110279;28;20136;-62
2023/01/10 22:20:08;;;;;;;4.95;4.47;;;;;;;;;;10108327;28;20049;-62
2023/01/10 22:25:02;;;;;;;8.35;4.53;;;;;;;;;;10103973;28;20095;-62
2023/01/10 22:29:56;;;;;;;5.65;4.78;;;;;;;;;;10108170;28;20049;-62
2023/01/10 22:34:49;;;;;;;9.00;5.63;;;;;;;;;;10107425;28;20060;-61
2023/01/10 22:39:42;;;;;;;5.90;4.35;;;;;;;;;;10109077;28;20095;-62
2023/01/10 22:44:35;;;;;;;5.57;4.68;;;;;;;;;;10106213;28;20049;-61
2023/01/10 22:49:29;;;;;;;10.88;5.90;;;;;;;;;;10107722;28;20048;-61
2023/01/10 22:54:22;;;;;;;7.57;5.78;;;;;;;;;;10110735;28;20556;-62
2023/01/10 22:59:16;;;;;;;5.20;4.30;;;;;;;;;;10111487;28;20080;-62
2023/01/10 23:04:21;;;;;;;4.00;3.63;;;;;;;;;;10111362;28;20044;-62
2023/01/10 23:09:15;;;;;;;8.77;4.13;;;;;;;;;;10112359;28;20525;-62
2023/01/10 23:14:08;;;;;;;4.20;3.80;;;;;;;;;;10115317;28;20053;-62
2023/01/10 23:19:03;;;;;;;4.00;3.50;;;;;;;;;;10115828;28;20494;-62
2023/01/10 23:23:58;;;;;;;5.15;3.40;;;;;;;;;;10113860;28;20056;-62
2023/01/10 23:28:52;;;;;;;4.10;3.67;;;;;;;;;;10109255;28;20131;-62
2023/01/10 23:33:45;;;;;;;4.00;3.60;;;;;;;;;;10116509;28;20045;-62
2023/01/10 23:38:40;;;;;;;3.40;2.78;;;;;;;;;;10112348;28;20049;-62
2023/01/10 23:43:33;;;;;;;4.53;3.97;;;;;;;;;;10113708;28;20103;-62
2023/01/10 23:48:28;;;;;;;5.40;4.90;;;;;;;;;;10111538;28;20080;-62
2023/01/10 23:53:22;;;;;;;4.55;3.38;;;;;;;;;;10107582;28;20460;-62
2023/01/10 23:58:16;;;;;;;3.65;3.03;;;;;;;;;;10107102;28;20106;-62
